createdAt,value
2022-12-24T00:01:22.827Z,100374.75
2022-12-24T00:03:51.368Z,100368.75
2022-12-24T00:06:21.819Z,100374.41
2022-12-24T00:08:51.173Z,100383.84
2022-12-24T00:11:19.753Z,100372.44
2022-12-24T00:13:49.351Z,100371.75
2022-12-24T00:16:17.455Z,100373.38
2022-12-24T00:18:46.668Z,100374.25
2022-12-24T00:21:15.906Z,100369.44
2022-12-24T00:23:44.364Z,100378.50
2022-12-24T00:26:12.525Z,100378.94
2022-12-24T00:28:40.714Z,100387.84
2022-12-24T00:31:12.279Z,100388.19
2022-12-24T00:33:40.285Z,100394.09
2022-12-24T00:36:09.477Z,100393.13
2022-12-24T00:38:38.062Z,100397.16
2022-12-24T00:41:24.578Z,100399.22
2022-12-24T00:43:54.339Z,100405.72
2022-12-24T00:46:24.337Z,100396.72
2022-12-24T00:48:52.287Z,100394.78
2022-12-24T00:51:21.400Z,100402.22
2022-12-24T00:53:49.807Z,100397.69
2022-12-24T00:56:18.043Z,100400.94
2022-12-24T00:58:46.005Z,100401.97
2022-12-24T01:01:14.374Z,100405.66
2022-12-24T01:03:43.717Z,100405.53
2022-12-24T01:06:12.980Z,100405.13
2022-12-24T01:08:41.206Z,100404.94
2022-12-24T01:11:10.551Z,100409.81
2022-12-24T01:13:39.048Z,100415.72
2022-12-24T01:16:16.727Z,100426.16
2022-12-24T01:18:46.125Z,100427.06
2022-12-24T01:21:14.047Z,100428.31
2022-12-24T01:23:42.021Z,100419.38
2022-12-24T01:26:14.016Z,100420.66
2022-12-24T01:28:42.598Z,100424.63
2022-12-24T01:31:15.409Z,100422.31
2022-12-24T01:33:45.456Z,100427.88
2022-12-24T01:36:15.093Z,100430.75
2022-12-24T01:38:43.307Z,100428.63
2022-12-24T01:41:34.587Z,100433.78
2022-12-24T01:44:17.933Z,100429.25
2022-12-24T01:46:46.414Z,100427.69
2022-12-24T01:49:17.285Z,100426.50
2022-12-24T01:51:49.265Z,100427.72
2022-12-24T01:54:22.480Z,100430.88
2022-12-24T01:56:55.326Z,100429.00
2022-12-24T01:59:23.762Z,100431.19
2022-12-24T02:01:52.859Z,100447.03
2022-12-24T02:04:30.199Z,100439.50
2022-12-24T02:06:58.760Z,100438.69
2022-12-24T02:09:27.109Z,100442.16
2022-12-24T02:11:55.360Z,100443.44
2022-12-24T02:14:23.797Z,100452.00
2022-12-24T02:16:59.670Z,100454.38
2022-12-24T02:20:03.883Z,100459.94
2022-12-24T02:22:48.052Z,100456.69
2022-12-24T02:25:34.087Z,100466.13
2022-12-24T02:28:14.087Z,100467.47
2022-12-24T02:30:45.960Z,100470.22
2022-12-24T02:33:22.062Z,100468.25
2022-12-24T02:35:54.285Z,100466.16
2022-12-24T02:38:27.453Z,100468.56
2022-12-24T02:40:59.819Z,100472.94
2022-12-24T02:43:33.528Z,100470.13
2022-12-24T02:46:07.315Z,100473.72
2022-12-24T02:48:38.476Z,100475.66
2022-12-24T02:51:09.036Z,100479.34
2022-12-24T02:53:37.989Z,100482.84
2022-12-24T02:56:20.070Z,100479.91
2022-12-24T02:59:01.117Z,100492.44
2022-12-24T03:01:40.979Z,100492.19
2022-12-24T03:04:17.705Z,100492.97
2022-12-24T03:06:54.323Z,100497.56
2022-12-24T03:09:27.277Z,100486.97
2022-12-24T03:12:00.462Z,100483.94
2022-12-24T03:14:29.878Z,100486.53
2022-12-24T03:17:00.094Z,100491.66
2022-12-24T03:19:29.693Z,100494.50
2022-12-24T03:22:00.522Z,100496.03
2022-12-24T03:24:28.496Z,100506.31
2022-12-24T03:26:56.900Z,100498.53
2022-12-24T03:29:25.091Z,100504.81
2022-12-24T03:31:59.860Z,100507.69
2022-12-24T03:34:29.313Z,100512.97
2022-12-24T03:36:57.858Z,100513.84
2022-12-24T03:39:26.061Z,100520.97
2022-12-24T03:41:53.909Z,100516.78
2022-12-24T03:44:21.732Z,100521.31
2022-12-24T03:46:49.617Z,100523.63
2022-12-24T03:49:17.459Z,100527.38
2022-12-24T03:51:46.627Z,100529.47
2022-12-24T03:54:14.659Z,100529.56
2022-12-24T03:56:42.544Z,100526.25
2022-12-24T03:59:10.405Z,100529.56
2022-12-24T04:01:38.481Z,100540.50
2022-12-24T04:04:06.846Z,100539.47
2022-12-24T04:06:35.004Z,100545.66
2022-12-24T04:09:05.222Z,100544.53
2022-12-24T04:11:33.653Z,100548.19
2022-12-24T04:14:01.583Z,100554.97
2022-12-24T04:16:29.625Z,100553.34
2022-12-24T04:18:57.704Z,100560.06
2022-12-24T04:21:25.589Z,100571.81
2022-12-24T04:23:53.573Z,100558.00
2022-12-24T04:26:22.893Z,100561.03
2022-12-24T04:28:50.855Z,100563.75
2022-12-24T04:31:19.511Z,100562.78
2022-12-24T04:33:48.000Z,100562.22
2022-12-24T04:36:18.236Z,100566.63
2022-12-24T04:38:46.650Z,100574.78
2022-12-24T04:41:23.108Z,100579.56
2022-12-24T04:43:54.422Z,100582.53
2022-12-24T04:46:25.299Z,100577.31
2022-12-24T04:48:55.411Z,100583.22
2022-12-24T04:51:24.445Z,100583.44
2022-12-24T04:53:52.560Z,100579.25
2022-12-24T04:56:22.950Z,100576.53
2022-12-24T04:58:51.452Z,100574.25
2022-12-24T05:01:23.022Z,100569.69
2022-12-24T05:03:51.491Z,100568.09
2022-12-24T05:06:21.560Z,100572.78
2022-12-24T05:08:50.357Z,100567.31
2022-12-24T05:11:18.570Z,100572.34
2022-12-24T05:13:48.263Z,100561.13
2022-12-24T05:16:17.962Z,100568.94
2022-12-24T05:18:47.563Z,100571.53
2022-12-24T05:21:17.460Z,100580.41
2022-12-24T05:24:03.073Z,100578.09
2022-12-24T05:26:34.365Z,100572.13
2022-12-24T05:29:03.261Z,100578.41
2022-12-24T05:31:33.517Z,100580.50
2022-12-24T05:34:03.648Z,100583.84
2022-12-24T05:36:31.941Z,100591.34
2022-12-24T05:39:00.175Z,100595.47
2022-12-24T05:41:28.469Z,100592.56
2022-12-24T05:43:56.767Z,100597.56
2022-12-24T05:46:26.061Z,100600.09
2022-12-24T05:48:54.907Z,100596.88
2022-12-24T05:51:24.551Z,100596.66
2022-12-24T05:53:53.009Z,100604.06
2022-12-24T05:56:23.018Z,100606.00
2022-12-24T05:58:52.090Z,100606.00
2022-12-24T06:01:20.887Z,100615.34
2022-12-24T06:03:49.811Z,100613.25
2022-12-24T06:06:22.960Z,100609.34
2022-12-24T06:08:53.983Z,100622.31
2022-12-24T06:11:23.398Z,100620.75
2022-12-24T06:13:51.523Z,100614.03
2022-12-24T06:16:21.008Z,100617.56
2022-12-24T06:18:49.300Z,100620.66
2022-12-24T06:21:17.584Z,100611.47
2022-12-24T06:23:47.080Z,100616.47
2022-12-24T06:26:19.256Z,100617.22
2022-12-24T06:28:48.479Z,100618.09
2022-12-24T06:31:18.736Z,100625.81
2022-12-24T06:33:47.023Z,100623.31
2022-12-24T06:36:20.302Z,100623.69
2022-12-24T06:38:49.184Z,100611.84
2022-12-24T06:41:19.522Z,100616.16
2022-12-24T06:43:47.820Z,100622.91
2022-12-24T06:46:16.773Z,100623.81
2022-12-24T06:48:45.570Z,100631.03
2022-12-24T06:51:14.186Z,100637.31
2022-12-24T06:53:47.805Z,100640.50
2022-12-24T06:56:15.904Z,100646.81
2022-12-24T06:58:45.319Z,100640.44
2022-12-24T07:01:19.499Z,100639.63
2022-12-24T07:03:48.250Z,100637.84
2022-12-24T07:06:20.737Z,100651.41
2022-12-24T07:08:48.645Z,100661.75
2022-12-24T07:11:17.585Z,100652.53
2022-12-24T07:13:47.554Z,100656.75
2022-12-24T07:16:15.446Z,100671.53
2022-12-24T07:18:43.578Z,100681.00
2022-12-24T07:21:14.360Z,100679.13
2022-12-24T07:23:42.440Z,100681.06
2022-12-24T07:26:11.849Z,100679.75
2022-12-24T07:28:39.821Z,100687.41
2022-12-24T07:31:09.146Z,100686.91
2022-12-24T07:33:37.356Z,100699.28
2022-12-24T07:36:06.932Z,100693.78
2022-12-24T07:38:36.168Z,100698.78
2022-12-24T07:41:04.088Z,100700.22
2022-12-24T07:43:34.794Z,100701.22
2022-12-24T07:46:03.341Z,100706.78
2022-12-24T07:48:33.504Z,100708.66
2022-12-24T07:51:02.127Z,100712.19
2022-12-24T07:53:32.730Z,100718.34
2022-12-24T07:56:00.768Z,100720.63
2022-12-24T07:58:28.645Z,100723.22
2022-12-24T08:00:58.143Z,100737.41
2022-12-24T08:03:26.959Z,100732.22
2022-12-24T08:05:57.493Z,100738.41
2022-12-24T08:08:25.873Z,100741.91
2022-12-24T08:10:53.794Z,100742.41
2022-12-24T08:13:21.625Z,100744.06
2022-12-24T08:15:49.820Z,100746.47
2022-12-24T08:18:17.742Z,100746.69
2022-12-24T08:20:45.648Z,100737.41
2022-12-24T08:23:14.920Z,100741.13
2022-12-24T08:25:44.110Z,100749.78
2022-12-24T08:28:12.384Z,100759.53
2022-12-24T08:30:40.564Z,100752.97
2022-12-24T08:33:12.356Z,100758.97
2022-12-24T08:35:40.501Z,100764.41
2022-12-24T08:38:11.076Z,100772.44
2022-12-24T08:40:40.530Z,100761.56
2022-12-24T08:43:08.498Z,100755.03
2022-12-24T08:45:40.671Z,100756.81
2022-12-24T08:48:10.335Z,100766.13
2022-12-24T08:50:40.900Z,100769.50
2022-12-24T08:53:09.104Z,100774.22
2022-12-24T08:55:37.133Z,100780.53
2022-12-24T08:58:06.482Z,100775.53
2022-12-24T09:00:34.789Z,100783.13
2022-12-24T09:03:02.999Z,100787.19
2022-12-24T09:05:30.908Z,100787.13
2022-12-24T09:07:59.012Z,100795.50
2022-12-24T09:10:27.005Z,100796.44
2022-12-24T09:12:54.851Z,100794.00
2022-12-24T09:15:24.096Z,100805.75
2022-12-24T09:17:52.013Z,100805.03
2022-12-24T09:20:19.885Z,100809.19
2022-12-24T09:22:47.796Z,100816.16
2022-12-24T09:25:15.867Z,100823.59
2022-12-24T09:27:43.743Z,100818.41
2022-12-24T09:30:12.917Z,100824.22
2022-12-24T09:32:42.219Z,100835.06
2022-12-24T09:35:10.810Z,100826.53
2022-12-24T09:37:39.225Z,100838.00
2022-12-24T09:40:17.190Z,100841.47
2022-12-24T09:42:52.945Z,100854.41
2022-12-24T09:45:25.903Z,100850.91
2022-12-24T09:47:59.150Z,100855.97
2022-12-24T09:50:39.886Z,100864.28
2022-12-24T09:53:19.272Z,100860.66
2022-12-24T09:55:50.884Z,100861.63
2022-12-24T09:58:24.807Z,100858.28
2022-12-24T10:00:56.847Z,100860.19
2022-12-24T10:03:26.305Z,100864.44
2022-12-24T10:06:07.337Z,100863.56
2022-12-24T10:08:46.889Z,100861.88
2022-12-24T10:11:20.741Z,100867.00
2022-12-24T10:14:03.064Z,100879.00
2022-12-24T10:16:44.276Z,100875.19
2022-12-24T10:19:18.425Z,100874.03
2022-12-24T10:22:00.775Z,100876.28
2022-12-24T10:24:34.732Z,100884.50
2022-12-24T10:27:08.251Z,100884.97
2022-12-24T10:29:40.603Z,100883.19
2022-12-24T10:32:17.762Z,100892.09
2022-12-24T10:34:53.695Z,100886.56
2022-12-24T10:37:25.893Z,100888.84
2022-12-24T10:39:54.136Z,100894.16
2022-12-24T10:42:26.110Z,100898.53
2022-12-24T10:44:59.371Z,100896.41
2022-12-24T10:47:29.229Z,100902.69
2022-12-24T10:50:05.188Z,100900.88
2022-12-24T10:52:37.824Z,100900.25
2022-12-24T10:55:12.518Z,100898.97
2022-12-24T10:57:41.654Z,100903.84
2022-12-24T11:00:20.929Z,100900.66
2022-12-24T11:03:09.233Z,100904.22
2022-12-24T11:05:39.333Z,100898.22
2022-12-24T11:08:20.439Z,100909.69
2022-12-24T11:10:57.296Z,100912.28
2022-12-24T11:13:37.590Z,100920.91
2022-12-24T11:16:09.298Z,100927.22
2022-12-24T11:18:50.506Z,100915.25
2022-12-24T11:21:26.935Z,100908.25
2022-12-24T11:23:58.065Z,100911.03
2022-12-24T11:26:28.712Z,100906.03
2022-12-24T11:29:13.610Z,100914.31
2022-12-24T11:31:41.756Z,100908.63
2022-12-24T11:34:28.355Z,100913.09
2022-12-24T11:37:14.688Z,100914.28
2022-12-24T11:39:47.488Z,100917.63
2022-12-24T11:42:27.668Z,100917.47
2022-12-24T11:44:57.824Z,100907.63
2022-12-24T11:47:36.625Z,100911.91
2022-12-24T11:50:25.739Z,100913.25
2022-12-24T11:53:02.564Z,100918.50
2022-12-24T11:55:41.590Z,100911.06
2022-12-24T11:58:19.878Z,100907.13
2022-12-24T12:00:50.532Z,100905.53
2022-12-24T12:03:30.119Z,100902.91
2022-12-24T12:06:01.863Z,100911.69
2022-12-24T12:08:32.664Z,100912.84
2022-12-24T12:11:01.575Z,100915.97
2022-12-24T12:13:33.449Z,100918.75
2022-12-24T12:16:11.103Z,100918.66
2022-12-24T12:18:41.833Z,100914.91
2022-12-24T12:21:18.073Z,100919.00
2022-12-24T12:23:50.716Z,100916.72
2022-12-24T12:26:25.751Z,100913.47
2022-12-24T12:28:58.950Z,100917.88
2022-12-24T12:31:31.486Z,100923.16
2022-12-24T12:34:05.222Z,100924.63
2022-12-24T12:36:37.641Z,100925.81
2022-12-24T12:39:07.591Z,100925.72
2022-12-24T12:41:49.828Z,100928.25
2022-12-24T12:44:32.212Z,100927.88
2022-12-24T12:47:24.521Z,100928.53
2022-12-24T12:50:09.151Z,100921.06
2022-12-24T12:52:52.079Z,100923.63
2022-12-24T12:55:36.402Z,100928.34
2022-12-24T12:58:11.009Z,100939.59
2022-12-24T13:00:42.689Z,100935.25
2022-12-24T13:03:44.863Z,100941.06
2022-12-24T13:06:32.371Z,100934.69
2022-12-24T13:09:38.473Z,100935.47
2022-12-24T13:12:22.409Z,100933.47
2022-12-24T13:15:07.577Z,100936.63
2022-12-24T13:18:00.113Z,100947.97
2022-12-24T13:20:30.751Z,100953.47
2022-12-24T13:23:01.739Z,100955.09
2022-12-24T13:25:36.572Z,100956.47
2022-12-24T13:28:31.992Z,100967.13
2022-12-24T13:31:25.928Z,100967.81
2022-12-24T13:33:54.354Z,100965.25
2022-12-24T13:36:23.946Z,100972.47
2022-12-24T13:38:53.128Z,100975.38
2022-12-24T13:41:50.381Z,100978.91
2022-12-24T13:44:22.623Z,101000.13
2022-12-24T13:46:56.597Z,101003.47
2022-12-24T13:49:29.919Z,100997.72
2022-12-24T13:52:23.555Z,101003.41
2022-12-24T13:55:07.720Z,101002.38
2022-12-24T13:57:41.761Z,101012.16
2022-12-24T14:00:29.302Z,101008.44
2022-12-24T14:03:00.086Z,101010.44
2022-12-24T14:05:35.468Z,101006.72
2022-12-24T14:08:05.815Z,101007.69
2022-12-24T14:10:39.603Z,101006.31
2022-12-24T14:13:10.156Z,101009.06
2022-12-24T14:16:03.612Z,101012.31
2022-12-24T14:18:35.093Z,101019.28
2022-12-24T14:21:03.975Z,101013.28
2022-12-24T14:23:50.542Z,101012.50
2022-12-24T14:26:21.935Z,101008.28
2022-12-24T14:28:56.342Z,101008.72
2022-12-24T14:31:26.025Z,101019.56
2022-12-24T14:33:54.013Z,101026.50
2022-12-24T14:36:25.214Z,101027.97
2022-12-24T14:38:53.487Z,101031.41
2022-12-24T14:41:40.371Z,101032.19
2022-12-24T14:44:17.967Z,101034.84
2022-12-24T14:46:54.123Z,101034.94
2022-12-24T14:49:44.238Z,101037.25
2022-12-24T14:52:45.814Z,101055.31
2022-12-24T14:55:29.407Z,101046.34
2022-12-24T14:58:24.007Z,101051.88
2022-12-24T15:00:53.342Z,101065.41
2022-12-24T15:03:24.604Z,101055.63
2022-12-24T15:05:55.475Z,101053.97
2022-12-24T15:08:29.945Z,101060.34
2022-12-24T15:11:02.650Z,101062.16
2022-12-24T15:13:36.983Z,101058.81
2022-12-24T15:16:08.740Z,101061.38
2022-12-24T15:18:43.215Z,101058.63
2022-12-24T15:21:19.060Z,101061.47
2022-12-24T15:23:49.602Z,101062.47
2022-12-24T15:26:23.112Z,101065.91
2022-12-24T15:28:56.520Z,101066.53
2022-12-24T15:31:30.143Z,101069.03
2022-12-24T15:34:00.470Z,101078.50
2022-12-24T15:36:31.936Z,101088.97
2022-12-24T15:39:02.102Z,101084.34
2022-12-24T15:41:38.101Z,101094.06
2022-12-24T15:44:06.498Z,101096.97
2022-12-24T15:46:34.787Z,101097.25
2022-12-24T15:49:05.832Z,101106.72
2022-12-24T15:51:40.183Z,101113.06
2022-12-24T15:54:14.131Z,101109.38
2022-12-24T15:56:45.065Z,101112.88
2022-12-24T15:59:31.140Z,101111.00
2022-12-24T16:02:22.876Z,101116.22
2022-12-24T16:04:52.580Z,101122.19
2022-12-24T16:07:26.412Z,101114.03
2022-12-24T16:10:14.455Z,101118.91
2022-12-24T16:12:42.383Z,101113.91
2022-12-24T16:15:16.191Z,101123.72
2022-12-24T16:17:50.265Z,101126.88
2022-12-24T16:20:22.690Z,101131.19
2022-12-24T16:22:51.492Z,101130.00
2022-12-24T16:25:25.559Z,101136.00
2022-12-24T16:27:55.528Z,101135.75
2022-12-24T16:30:25.141Z,101140.75
2022-12-24T16:32:53.085Z,101142.94
2022-12-24T16:35:27.133Z,101140.25
2022-12-24T16:37:55.459Z,101143.44
2022-12-24T16:40:27.699Z,101150.31
2022-12-24T16:43:14.485Z,101152.50
2022-12-24T16:45:42.753Z,101151.38
2022-12-24T16:48:18.192Z,101160.16
2022-12-24T16:50:47.660Z,101166.19
2022-12-24T16:53:17.818Z,101156.38
2022-12-24T16:55:47.729Z,101160.44
2022-12-24T16:58:17.240Z,101162.31
2022-12-24T17:00:45.888Z,101169.53
2022-12-24T17:03:16.585Z,101171.16
2022-12-24T17:05:45.597Z,101178.31
2022-12-24T17:08:15.374Z,101180.00
2022-12-24T17:10:51.665Z,101192.34
2022-12-24T17:13:19.537Z,101192.47
2022-12-24T17:15:47.423Z,101193.66
2022-12-24T17:18:15.274Z,101197.03
2022-12-24T17:20:43.249Z,101194.34
2022-12-24T17:23:11.179Z,101198.78
2022-12-24T17:25:40.410Z,101202.03
2022-12-24T17:28:08.307Z,101202.81
2022-12-24T17:30:36.257Z,101208.41
2022-12-24T17:33:08.060Z,101205.66
2022-12-24T17:35:40.983Z,101204.69
2022-12-24T17:38:08.952Z,101207.47
2022-12-24T17:40:37.023Z,101217.34
2022-12-24T17:43:06.511Z,101222.84
2022-12-24T17:45:34.337Z,101220.69
2022-12-24T17:48:02.237Z,101216.94
2022-12-24T17:50:30.156Z,101236.28
2022-12-24T17:52:58.170Z,101230.09
2022-12-24T17:55:26.122Z,101240.50
2022-12-24T17:57:54.197Z,101242.09
2022-12-24T18:00:31.044Z,101243.88
2022-12-24T18:03:01.189Z,101242.16
2022-12-24T18:05:29.617Z,101252.28
2022-12-24T18:07:57.570Z,101246.88
2022-12-24T18:10:25.623Z,101247.22
2022-12-24T18:12:53.523Z,101252.19
2022-12-24T18:15:25.041Z,101257.09
2022-12-24T18:17:53.875Z,101251.00
2022-12-24T18:20:22.964Z,101251.00
2022-12-24T18:22:51.041Z,101253.97
2022-12-24T18:25:20.342Z,101255.63
2022-12-24T18:27:48.948Z,101253.56
2022-12-24T18:30:20.491Z,101263.38
2022-12-24T18:32:53.770Z,101269.00
2022-12-24T18:35:22.580Z,101270.75
2022-12-24T18:37:50.699Z,101266.19
2022-12-24T18:40:20.639Z,101266.91
2022-12-24T18:42:48.581Z,101267.06
2022-12-24T18:45:16.506Z,101266.44
2022-12-24T18:47:44.648Z,101279.06
2022-12-24T18:50:16.408Z,101277.88
2022-12-24T18:52:46.190Z,101276.88
2022-12-24T18:55:14.286Z,101279.94
2022-12-24T18:57:42.218Z,101276.75
2022-12-24T19:00:13.940Z,101274.09
2022-12-24T19:02:41.963Z,101281.91
2022-12-24T19:05:10.108Z,101282.88
2022-12-24T19:07:39.403Z,101292.75
2022-12-24T19:10:08.385Z,101296.66
2022-12-24T19:12:36.332Z,101283.88
2022-12-24T19:15:04.589Z,101292.66
2022-12-24T19:17:32.519Z,101286.53
2022-12-24T19:20:00.758Z,101289.44
2022-12-24T19:22:28.852Z,101287.94
2022-12-24T19:24:58.329Z,101286.38
2022-12-24T19:27:26.316Z,101290.84
2022-12-24T19:29:54.316Z,101293.97
2022-12-24T19:32:22.205Z,101298.91
2022-12-24T19:34:50.099Z,101299.06
2022-12-24T19:37:18.050Z,101299.28
2022-12-24T19:39:46.023Z,101305.84
2022-12-24T19:42:15.887Z,101306.72
2022-12-24T19:44:43.959Z,101303.03
2022-12-24T19:47:11.987Z,101305.84
2022-12-24T19:49:39.898Z,101315.63
2022-12-24T19:52:07.973Z,101305.41
2022-12-24T19:54:36.757Z,101308.16
2022-12-24T19:57:04.719Z,101311.81
2022-12-24T19:59:34.122Z,101319.97
2022-12-24T20:02:02.281Z,101310.94
2022-12-24T20:04:30.299Z,101319.66
2022-12-24T20:07:00.806Z,101315.91
2022-12-24T20:09:31.528Z,101309.44
2022-12-24T20:11:59.414Z,101313.09
2022-12-24T20:14:27.331Z,101312.06
2022-12-24T20:16:56.678Z,101317.13
2022-12-24T20:19:24.642Z,101325.75
2022-12-24T20:21:52.499Z,101325.47
2022-12-24T20:24:20.417Z,101342.06
2022-12-24T20:26:50.223Z,101348.13
2022-12-24T20:29:18.143Z,101351.56
2022-12-24T20:31:46.175Z,101355.09
2022-12-24T20:34:15.544Z,101359.53
2022-12-24T20:36:44.120Z,101367.69
2022-12-24T20:39:13.379Z,101360.59
2022-12-24T20:41:41.442Z,101365.31
2022-12-24T20:44:09.404Z,101377.31
2022-12-24T20:46:37.346Z,101375.88
2022-12-24T20:49:05.977Z,101378.53
2022-12-24T20:51:35.191Z,101378.97
2022-12-24T20:54:08.334Z,101380.47
2022-12-24T20:56:36.422Z,101377.94
2022-12-24T20:59:04.635Z,101388.03
2022-12-24T21:01:34.400Z,101388.38
2022-12-24T21:04:08.187Z,101391.19
2022-12-24T21:06:37.953Z,101391.31
2022-12-24T21:09:06.915Z,101403.81
2022-12-24T21:11:52.795Z,101413.88
2022-12-24T21:14:22.946Z,101407.94
2022-12-24T21:16:51.750Z,101421.50
2022-12-24T21:19:21.985Z,101423.34
2022-12-24T21:21:51.770Z,101419.44
2022-12-24T21:24:19.709Z,101417.56
2022-12-24T21:26:47.719Z,101411.47
2022-12-24T21:29:15.618Z,101421.19
2022-12-24T21:31:44.014Z,101421.97
2022-12-24T21:34:12.281Z,101424.63
2022-12-24T21:36:40.230Z,101440.78
2022-12-24T21:39:09.557Z,101441.78
2022-12-24T21:41:37.577Z,101446.19
2022-12-24T21:44:05.570Z,101447.88
2022-12-24T21:46:33.539Z,101447.22
2022-12-24T21:49:18.916Z,101454.41
2022-12-24T21:51:49.003Z,101456.28
2022-12-24T21:54:27.119Z,101464.56
2022-12-24T21:57:15.332Z,101463.03
2022-12-24T21:59:43.505Z,101460.06
2022-12-24T22:02:13.392Z,101468.72
2022-12-24T22:04:41.998Z,101466.09
2022-12-24T22:07:48.997Z,101451.16
2022-12-24T22:10:36.011Z,101452.81
2022-12-24T22:13:06.568Z,101467.84
2022-12-24T22:15:34.625Z,101475.16
2022-12-24T22:18:02.864Z,101478.59
2022-12-24T22:20:38.007Z,101478.16
2022-12-24T22:23:05.963Z,101481.72
2022-12-24T22:25:35.812Z,101473.56
2022-12-24T22:28:03.997Z,101478.88
2022-12-24T22:30:32.160Z,101477.94
2022-12-24T22:33:00.206Z,101487.03
2022-12-24T22:35:28.192Z,101491.75
2022-12-24T22:38:00.122Z,101497.06
2022-12-24T22:40:28.587Z,101472.84
2022-12-24T22:42:57.854Z,101471.00
2022-12-24T22:45:25.732Z,101465.78
2022-12-24T22:47:53.808Z,101466.09
2022-12-24T22:50:21.766Z,101468.81
2022-12-24T22:52:49.720Z,101465.25
2022-12-24T22:55:17.894Z,101464.16
2022-12-24T22:57:45.760Z,101478.16
2022-12-24T23:00:18.161Z,101485.00
2022-12-24T23:02:46.119Z,101477.69
2022-12-24T23:05:15.455Z,101482.06
2022-12-24T23:07:43.513Z,101472.22
2022-12-24T23:10:11.677Z,101458.75
2022-12-24T23:12:56.844Z,101467.06
2022-12-24T23:15:26.143Z,101461.97
2022-12-24T23:17:53.959Z,101465.97
2022-12-24T23:20:22.014Z,101468.22
2022-12-24T23:22:51.155Z,101469.09
2022-12-24T23:25:19.183Z,101459.28
2022-12-24T23:27:47.154Z,101466.69
2022-12-24T23:30:15.633Z,101476.75
2022-12-24T23:32:44.880Z,101480.34
2022-12-24T23:35:12.958Z,101480.34
2022-12-24T23:37:40.806Z,101482.13
2022-12-24T23:40:09.975Z,101481.31
2022-12-24T23:42:37.855Z,101471.47
2022-12-24T23:45:06.576Z,101469.69
2022-12-24T23:47:34.411Z,101463.78
2022-12-24T23:50:04.503Z,101466.72
2022-12-24T23:52:32.365Z,101477.63
2022-12-24T23:55:00.211Z,101480.53
2022-12-24T23:57:28.149Z,101479.28
2022-12-24T23:59:56.023Z,101478.88
